createdAt,value
2018-07-19T00:00:19.612Z,101567.34
2018-07-19T00:02:48.174Z,101566.73
2018-07-19T00:05:16.785Z,101566.86
2018-07-19T00:07:45.348Z,101562.41
2018-07-19T00:10:13.892Z,101568.16
2018-07-19T00:12:42.424Z,101570.54
2018-07-19T00:15:10.955Z,101566.48
2018-07-19T00:17:39.539Z,101567.48
2018-07-19T00:20:08.293Z,101568.69
2018-07-19T00:22:36.907Z,101565.87
2018-07-19T00:25:05.452Z,101563.62
2018-07-19T00:27:34.016Z,101562.73
2018-07-19T00:30:02.586Z,101562.73
2018-07-19T00:32:31.163Z,101559.37
2018-07-19T00:34:59.695Z,101562.50
2018-07-19T00:37:28.262Z,101558.88
2018-07-19T00:39:56.805Z,101566.88
2018-07-19T00:42:25.376Z,101565.98
2018-07-19T00:44:53.903Z,101568.70
2018-07-19T00:47:22.456Z,101562.66
2018-07-19T00:49:50.990Z,101564.47
2018-07-19T00:52:19.535Z,101565.22
2018-07-19T00:54:48.080Z,101557.33
2018-07-19T00:57:16.659Z,101558.71
2018-07-19T00:59:45.202Z,101556.55
2018-07-19T01:02:13.799Z,101560.33
2018-07-19T01:04:42.347Z,101553.89
2018-07-19T01:07:10.900Z,101559.75
2018-07-19T01:09:39.434Z,101559.83
2018-07-19T01:12:07.999Z,101559.77
2018-07-19T01:14:36.529Z,101562.16
2018-07-19T01:17:05.283Z,101558.84
2018-07-19T01:19:33.881Z,101563.61
2018-07-19T01:22:02.424Z,101563.52
2018-07-19T01:24:30.942Z,101563.08
2018-07-19T01:26:59.538Z,101560.76
2018-07-19T01:29:28.084Z,101560.45
2018-07-19T01:31:56.621Z,101565.13
2018-07-19T01:34:25.179Z,101561.63
2018-07-19T01:36:53.723Z,101560.69
2018-07-19T01:39:22.392Z,101551.95
2018-07-19T01:42:43.331Z,101557.80
2018-07-19T01:45:12.672Z,101560.95
2018-07-19T01:47:41.703Z,101565.11
2018-07-19T01:50:11.163Z,101562.72
2018-07-19T01:52:39.832Z,101566.98
2018-07-19T01:55:09.000Z,101568.81
2018-07-19T01:57:37.701Z,101564.09
2018-07-19T02:00:06.875Z,101560.50
2018-07-19T02:02:35.576Z,101561.23
2018-07-19T02:05:04.618Z,101562.73
2018-07-19T02:07:33.292Z,101561.25
2018-07-19T02:10:01.977Z,101562.22
2018-07-19T02:12:30.650Z,101563.18
2018-07-19T02:14:59.307Z,101556.73
2018-07-19T02:17:27.952Z,101563.19
2018-07-19T02:19:56.661Z,101564.61
2018-07-19T02:22:25.346Z,101555.94
2018-07-19T02:24:54.050Z,101559.31
2018-07-19T02:27:22.705Z,101559.77
2018-07-19T02:29:51.408Z,101558.17
2018-07-19T02:32:20.055Z,101553.64
2018-07-19T02:34:48.741Z,101554.06
2018-07-19T02:37:17.439Z,101548.48
2018-07-19T02:39:46.120Z,101554.38
2018-07-19T02:42:14.796Z,101556.39
2018-07-19T02:44:43.535Z,101553.11
2018-07-19T02:47:12.190Z,101555.33
2018-07-19T02:49:40.887Z,101558.80
2018-07-19T02:52:09.537Z,101560.60
2018-07-19T02:54:38.237Z,101557.12
2018-07-19T02:57:06.905Z,101564.76
2018-07-19T02:59:35.588Z,101556.09
2018-07-19T03:02:04.352Z,101559.45
2018-07-19T03:04:33.009Z,101570.45
2018-07-19T03:07:01.660Z,101565.48
2018-07-19T03:09:30.340Z,101562.63
2018-07-19T03:11:59.019Z,101560.63
2018-07-19T03:14:27.689Z,101568.23
2018-07-19T03:16:56.328Z,101567.81
2018-07-19T03:19:25.007Z,101570.97
2018-07-19T03:21:53.676Z,101572.80
2018-07-19T03:24:22.340Z,101572.45
2018-07-19T03:26:50.994Z,101571.31
2018-07-19T03:29:19.684Z,101569.82
2018-07-19T03:31:48.354Z,101573.83
2018-07-19T03:34:17.151Z,101568.34
2018-07-19T03:36:45.919Z,101568.75
2018-07-19T03:39:14.589Z,101572.87
2018-07-19T03:41:43.242Z,101576.92
2018-07-19T03:44:11.934Z,101575.86
2018-07-19T03:46:40.616Z,101581.66
2018-07-19T03:49:09.284Z,101580.52
2018-07-19T03:51:37.968Z,101578.81
2018-07-19T03:54:06.673Z,101582.63
2018-07-19T03:56:35.308Z,101575.64
2018-07-19T03:59:04.001Z,101572.97
2018-07-19T04:01:32.682Z,101570.45
2018-07-19T04:04:01.440Z,101576.71
2018-07-19T04:06:30.088Z,101577.66
2018-07-19T04:08:58.786Z,101582.41
2018-07-19T04:11:27.448Z,101582.74
2018-07-19T04:13:56.124Z,101583.27
2018-07-19T04:16:24.779Z,101586.53
2018-07-19T04:18:53.453Z,101586.53
2018-07-19T04:21:22.148Z,101587.41
2018-07-19T04:23:50.794Z,101582.52
2018-07-19T04:26:19.472Z,101586.86
2018-07-19T04:28:48.135Z,101587.05
2018-07-19T04:31:16.843Z,101588.11
2018-07-19T04:33:45.493Z,101595.72
2018-07-19T04:36:15.182Z,101592.19
2018-07-19T04:38:43.833Z,101592.41
2018-07-19T04:41:12.541Z,101594.61
2018-07-19T04:43:41.205Z,101589.91
2018-07-19T04:46:09.876Z,101594.02
2018-07-19T04:48:38.526Z,101596.22
2018-07-19T04:51:07.299Z,101599.78
2018-07-19T04:53:35.965Z,101603.16
2018-07-19T04:56:04.668Z,101606.93
2018-07-19T04:58:33.352Z,101609.97
2018-07-19T05:01:02.065Z,101609.30
2018-07-19T05:03:30.772Z,101613.09
2018-07-19T05:05:59.471Z,101610.52
2018-07-19T05:08:28.112Z,101611.29
2018-07-19T05:10:56.814Z,101610.72
2018-07-19T05:13:25.484Z,101615.86
2018-07-19T05:15:54.139Z,101620.80
2018-07-19T05:18:22.792Z,101621.97
2018-07-19T05:20:51.490Z,101623.02
2018-07-19T05:23:20.172Z,101624.52
2018-07-19T05:25:48.860Z,101622.20
2018-07-19T05:28:17.535Z,101623.14
2018-07-19T05:30:46.216Z,101622.48
2018-07-19T05:33:14.894Z,101626.98
2018-07-19T05:35:43.582Z,101621.30
2018-07-19T05:38:12.236Z,101629.31
2018-07-19T05:40:40.910Z,101621.47
2018-07-19T05:43:09.630Z,101611.92
2018-07-19T05:45:38.295Z,101613.84
2018-07-19T05:48:06.986Z,101613.59
2018-07-19T05:50:35.672Z,101611.12
2018-07-19T05:53:04.306Z,101612.29
2018-07-19T05:55:33.006Z,101609.77
2018-07-19T05:58:01.635Z,101607.80
2018-07-19T06:00:30.296Z,101603.09
2018-07-19T06:02:58.979Z,101601.80
2018-07-19T06:05:27.708Z,101601.33
2018-07-19T06:07:56.364Z,101601.83
2018-07-19T06:10:25.035Z,101600.47
2018-07-19T06:12:53.708Z,101596.03
2018-07-19T06:15:22.384Z,101606.69
2018-07-19T06:17:51.022Z,101605.51
2018-07-19T06:20:19.729Z,101610.48
2018-07-19T06:22:48.417Z,101605.67
2018-07-19T06:25:17.151Z,101610.69
2018-07-19T06:27:45.835Z,101610.53
2018-07-19T06:30:14.491Z,101611.42
2018-07-19T06:32:43.205Z,101605.38
2018-07-19T06:35:11.912Z,101615.02
2018-07-19T06:37:40.599Z,101616.61
2018-07-19T06:40:09.251Z,101614.80
2018-07-19T06:42:37.964Z,101615.70
2018-07-19T06:45:06.756Z,101615.03
2018-07-19T06:47:35.468Z,101612.30
2018-07-19T06:50:04.204Z,101612.70
2018-07-19T06:52:32.941Z,101613.59
2018-07-19T06:55:01.657Z,101618.88
2018-07-19T06:57:30.400Z,101620.17
2018-07-19T06:59:59.045Z,101628.70
2018-07-19T07:02:27.922Z,101624.17
2018-07-19T07:04:56.575Z,101622.72
2018-07-19T07:07:25.356Z,101616.63
2018-07-19T07:09:54.017Z,101623.70
2018-07-19T07:12:22.795Z,101616.48
2018-07-19T07:14:51.445Z,101621.09
2018-07-19T07:17:20.154Z,101611.26
2018-07-19T07:19:48.843Z,101619.86
2018-07-19T07:22:17.555Z,101613.53
2018-07-19T07:24:46.236Z,101620.69
2018-07-19T07:27:14.963Z,101620.64
2018-07-19T07:29:43.600Z,101616.63
2018-07-19T07:32:12.612Z,101618.69
2018-07-19T07:34:41.312Z,101611.81
2018-07-19T07:37:09.997Z,101624.22
2018-07-19T07:39:38.635Z,101621.03
2018-07-19T07:42:07.397Z,101626.11
2018-07-19T07:44:36.093Z,101620.72
2018-07-19T07:47:04.809Z,101623.23
2018-07-19T07:49:33.488Z,101627.18
2018-07-19T07:52:02.163Z,101623.87
2018-07-19T07:54:31.909Z,101627.74
2018-07-19T07:57:00.578Z,101628.05
2018-07-19T07:59:29.256Z,101627.64
2018-07-19T08:01:57.958Z,101631.23
2018-07-19T08:04:26.613Z,101622.11
2018-07-19T08:06:55.336Z,101618.50
2018-07-19T08:09:24.016Z,101626.03
2018-07-19T08:11:52.695Z,101633.05
2018-07-19T08:14:21.391Z,101613.32
2018-07-19T08:16:50.055Z,101623.11
2018-07-19T08:19:18.715Z,101619.39
2018-07-19T08:21:47.430Z,101628.40
2018-07-19T08:24:16.069Z,101620.89
2018-07-19T08:26:44.747Z,101617.00
2018-07-19T08:29:13.415Z,101618.91
2018-07-19T08:31:42.155Z,101620.88
2018-07-19T08:34:10.820Z,101614.23
2018-07-19T08:36:39.520Z,101615.59
2018-07-19T08:39:11.198Z,101615.09
2018-07-19T08:41:39.869Z,101619.29
2018-07-19T08:44:08.529Z,101615.41
2018-07-19T08:46:37.223Z,101613.13
2018-07-19T08:49:06.152Z,101611.67
2018-07-19T08:51:34.828Z,101612.80
2018-07-19T08:54:03.593Z,101613.39
2018-07-19T08:56:32.241Z,101609.50
2018-07-19T08:59:00.939Z,101608.14
2018-07-19T09:01:29.607Z,101611.77
2018-07-19T09:03:58.349Z,101609.49
2018-07-19T09:06:27.024Z,101613.13
2018-07-19T09:08:55.712Z,101619.00
2018-07-19T09:11:24.381Z,101614.84
2018-07-19T09:13:53.068Z,101608.10
2018-07-19T09:16:21.741Z,101617.86
2018-07-19T09:18:50.428Z,101616.69
2018-07-19T09:21:19.087Z,101614.45
2018-07-19T09:23:47.777Z,101604.39
2018-07-19T09:26:16.449Z,101621.20
2018-07-19T09:28:45.130Z,101617.86
2018-07-19T09:31:13.782Z,101617.28
2018-07-19T09:33:42.484Z,101619.25
2018-07-19T09:36:11.127Z,101619.50
2018-07-19T09:38:39.880Z,101622.03
2018-07-19T09:41:08.499Z,101615.89
2018-07-19T09:43:37.216Z,101620.59
2018-07-19T09:46:05.879Z,101611.62
2018-07-19T09:48:34.552Z,101614.09
2018-07-19T09:51:03.207Z,101612.66
2018-07-19T09:53:31.905Z,101621.02
2018-07-19T09:56:00.553Z,101618.02
2018-07-19T09:58:29.221Z,101627.55
2018-07-19T10:01:01.842Z,101622.22
2018-07-19T10:03:30.574Z,101621.88
2018-07-19T10:05:59.212Z,101622.89
2018-07-19T10:08:27.884Z,101610.09
2018-07-19T10:10:56.534Z,101612.70
2018-07-19T10:13:25.232Z,101618.77
2018-07-19T10:15:53.899Z,101609.18
2018-07-19T10:18:22.602Z,101618.42
2018-07-19T10:20:51.260Z,101616.20
2018-07-19T10:23:19.999Z,101609.53
2018-07-19T10:25:48.687Z,101616.73
2018-07-19T10:28:17.375Z,101610.38
2018-07-19T10:30:46.028Z,101617.89
2018-07-19T10:33:14.692Z,101623.17
2018-07-19T10:35:43.367Z,101612.86
2018-07-19T10:38:12.092Z,101615.26
2018-07-19T10:40:40.824Z,101605.51
2018-07-19T10:43:09.629Z,101603.42
2018-07-19T10:45:38.294Z,101602.02
2018-07-19T10:48:07.009Z,101610.58
2018-07-19T10:50:35.676Z,101608.33
2018-07-19T10:53:04.352Z,101612.22
2018-07-19T10:55:33.003Z,101605.04
2018-07-19T10:58:01.674Z,101597.00
2018-07-19T11:00:30.328Z,101600.30
2018-07-19T11:02:58.983Z,101597.48
2018-07-19T11:05:27.645Z,101601.47
2018-07-19T11:07:56.294Z,101598.58
2018-07-19T11:10:24.972Z,101598.56
2018-07-19T11:12:53.603Z,101599.12
2018-07-19T11:15:22.291Z,101600.36
2018-07-19T11:17:50.936Z,101594.58
2018-07-19T11:20:19.581Z,101595.78
2018-07-19T11:22:48.267Z,101599.06
2018-07-19T11:25:17.010Z,101587.31
2018-07-19T11:27:45.648Z,101584.40
2018-07-19T11:30:14.423Z,101584.56
2018-07-19T11:32:43.090Z,101585.72
2018-07-19T11:35:11.800Z,101591.59
2018-07-19T11:37:40.431Z,101591.82
2018-07-19T11:40:09.100Z,101592.34
2018-07-19T11:42:37.740Z,101591.86
2018-07-19T11:45:06.593Z,101593.47
2018-07-19T11:47:35.222Z,101587.06
2018-07-19T11:50:03.960Z,101583.30
2018-07-19T11:52:32.597Z,101576.98
2018-07-19T11:55:01.247Z,101580.55
2018-07-19T11:57:29.888Z,101579.84
2018-07-19T11:59:58.557Z,101578.27
2018-07-19T12:02:27.278Z,101575.91
2018-07-19T12:04:55.949Z,101580.05
2018-07-19T12:07:25.426Z,101575.83
2018-07-19T12:09:54.084Z,101575.98
2018-07-19T12:12:22.732Z,101576.39
2018-07-19T12:14:51.396Z,101574.05
2018-07-19T12:17:20.041Z,101574.28
2018-07-19T12:19:48.693Z,101570.50
2018-07-19T12:22:17.349Z,101573.54
2018-07-19T12:24:45.999Z,101570.72
2018-07-19T12:27:14.773Z,101581.22
2018-07-19T12:29:43.431Z,101578.47
2018-07-19T12:32:12.067Z,101580.61
2018-07-19T12:34:40.721Z,101583.44
2018-07-19T12:37:09.357Z,101582.61
2018-07-19T12:39:38.053Z,101571.81
2018-07-19T12:42:06.731Z,101576.08
2018-07-19T12:44:35.380Z,101574.12
2018-07-19T12:47:04.008Z,101564.09
2018-07-19T12:49:32.663Z,101566.33
2018-07-19T12:52:01.317Z,101563.89
2018-07-19T12:54:29.997Z,101566.42
2018-07-19T12:56:58.698Z,101568.73
2018-07-19T12:59:27.360Z,101570.10
2018-07-19T13:01:56.040Z,101558.52
2018-07-19T13:04:24.729Z,101562.30
2018-07-19T13:06:53.395Z,101564.27
2018-07-19T13:09:22.041Z,101563.98
2018-07-19T13:11:50.702Z,101559.80
2018-07-19T13:14:19.356Z,101553.39
2018-07-19T13:16:48.005Z,101556.23
2018-07-19T13:19:16.638Z,101551.59
2018-07-19T13:21:45.317Z,101546.59
2018-07-19T13:24:13.985Z,101550.10
2018-07-19T13:26:42.639Z,101557.27
2018-07-19T13:29:11.287Z,101560.16
2018-07-19T13:31:40.004Z,101557.34
2018-07-19T13:34:08.649Z,101550.74
2018-07-19T13:36:37.341Z,101554.51
2018-07-19T13:39:08.214Z,101559.42
2018-07-19T13:41:36.951Z,101550.84
2018-07-19T13:44:05.754Z,101549.35
2018-07-19T13:46:34.425Z,101543.51
2018-07-19T13:49:03.053Z,101533.92
2018-07-19T13:51:31.724Z,101544.86
2018-07-19T13:54:19.731Z,101532.05
2018-07-19T13:56:48.523Z,101531.00
2018-07-19T13:59:17.852Z,101526.38
2018-07-19T14:01:46.506Z,101526.98
2018-07-19T14:04:15.162Z,101526.33
2018-07-19T14:06:43.807Z,101524.91
2018-07-19T14:09:13.753Z,101530.42
2018-07-19T14:11:42.525Z,101529.61
2018-07-19T14:14:11.367Z,101524.50
2018-07-19T14:16:40.042Z,101524.13
2018-07-19T14:19:08.723Z,101523.28
2018-07-19T14:21:37.386Z,101521.23
2018-07-19T14:24:06.150Z,101521.67
2018-07-19T14:26:34.817Z,101521.64
2018-07-19T14:29:03.478Z,101521.39
2018-07-19T14:31:32.157Z,101509.27
2018-07-19T14:34:00.798Z,101523.22
2018-07-19T14:36:29.447Z,101516.61
2018-07-19T14:38:58.070Z,101506.75
2018-07-19T14:41:26.745Z,101505.38
2018-07-19T14:43:55.382Z,101503.53
2018-07-19T14:46:24.117Z,101506.62
2018-07-19T14:48:52.757Z,101507.53
2018-07-19T14:51:21.412Z,101507.56
2018-07-19T14:53:50.036Z,101502.42
2018-07-19T14:56:18.710Z,101502.09
2018-07-19T14:58:47.347Z,101495.20
2018-07-19T15:01:16.022Z,101491.84
2018-07-19T15:03:44.704Z,101490.28
2018-07-19T15:06:13.366Z,101486.70
2018-07-19T15:08:42.013Z,101492.69
2018-07-19T15:11:10.668Z,101491.28
2018-07-19T15:13:39.390Z,101487.86
2018-07-19T15:16:08.255Z,101481.02
2018-07-19T15:18:37.137Z,101480.06
2018-07-19T15:21:05.780Z,101477.47
2018-07-19T15:23:34.424Z,101483.30
2018-07-19T15:26:03.097Z,101485.69
2018-07-19T15:28:31.727Z,101474.08
2018-07-19T15:31:00.394Z,101479.36
2018-07-19T15:33:29.035Z,101476.80
2018-07-19T15:35:57.720Z,101471.83
2018-07-19T15:38:26.373Z,101476.30
2018-07-19T15:40:55.015Z,101485.09
2018-07-19T15:43:23.680Z,101478.58
2018-07-19T15:45:52.327Z,101471.69
2018-07-19T15:48:20.992Z,101472.92
2018-07-19T15:50:49.628Z,101476.31
2018-07-19T15:53:18.288Z,101469.12
2018-07-19T15:55:46.955Z,101465.41
2018-07-19T15:58:15.639Z,101472.42
2018-07-19T16:00:44.283Z,101469.14
2018-07-19T16:03:12.983Z,101468.09
2018-07-19T16:05:41.651Z,101462.15
2018-07-19T16:08:10.326Z,101460.92
2018-07-19T16:10:39.010Z,101454.08
2018-07-19T16:13:07.670Z,101463.50
2018-07-19T16:15:36.343Z,101461.71
2018-07-19T16:18:05.019Z,101463.84
2018-07-19T16:20:33.739Z,101463.44
2018-07-19T16:23:02.599Z,101455.70
2018-07-19T16:25:31.287Z,101458.33
2018-07-19T16:27:59.947Z,101456.00
2018-07-19T16:30:28.581Z,101460.27
2018-07-19T16:32:57.318Z,101462.66
2018-07-19T16:35:25.929Z,101469.03
2018-07-19T16:37:54.573Z,101462.20
2018-07-19T16:40:23.224Z,101467.59
2018-07-19T16:42:51.897Z,101465.97
2018-07-19T16:45:20.575Z,101470.41
2018-07-19T16:47:49.244Z,101470.41
2018-07-19T16:50:17.870Z,101466.99
2018-07-19T16:52:46.527Z,101466.47
2018-07-19T16:55:15.199Z,101469.02
2018-07-19T16:57:43.845Z,101471.55
2018-07-19T17:00:12.484Z,101470.44
2018-07-19T17:02:41.173Z,101470.45
2018-07-19T17:05:09.836Z,101469.58
2018-07-19T17:07:38.494Z,101470.16
2018-07-19T17:10:07.532Z,101473.50
2018-07-19T17:12:36.472Z,101467.36
2018-07-19T17:15:05.475Z,101466.80
2018-07-19T17:17:34.153Z,101465.14
2018-07-19T17:20:02.789Z,101467.64
2018-07-19T17:22:31.440Z,101463.42
2018-07-19T17:25:00.077Z,101466.23
2018-07-19T17:27:28.731Z,101465.94
2018-07-19T17:29:57.385Z,101464.77
2018-07-19T17:32:26.065Z,101461.84
2018-07-19T17:34:54.722Z,101460.80
2018-07-19T17:37:23.406Z,101465.20
2018-07-19T17:39:52.052Z,101457.90
2018-07-19T17:42:20.709Z,101458.77
2018-07-19T17:44:49.370Z,101455.73
2018-07-19T17:47:18.038Z,101457.86
2018-07-19T17:49:46.672Z,101456.61
2018-07-19T17:52:15.367Z,101465.73
2018-07-19T17:54:44.695Z,101466.58
2018-07-19T17:57:13.370Z,101474.23
2018-07-19T17:59:42.125Z,101470.30
2018-07-19T18:02:11.076Z,101472.56
2018-07-19T18:04:39.737Z,101475.41
2018-07-19T18:07:08.396Z,101475.97
2018-07-19T18:09:37.040Z,101470.27
2018-07-19T18:12:05.684Z,101472.28
2018-07-19T18:14:34.338Z,101470.85
2018-07-19T18:17:02.987Z,101470.95
2018-07-19T18:19:31.732Z,101468.97
2018-07-19T18:22:00.367Z,101473.05
2018-07-19T18:24:29.023Z,101475.97
2018-07-19T18:26:57.651Z,101474.77
2018-07-19T18:29:26.308Z,101477.27
2018-07-19T18:31:54.952Z,101470.05
2018-07-19T18:34:23.633Z,101475.77
2018-07-19T18:36:52.289Z,101483.20
2018-07-19T18:39:20.947Z,101483.11
2018-07-19T18:41:49.608Z,101489.97
2018-07-19T18:44:18.258Z,101487.41
2018-07-19T18:46:46.887Z,101486.50
2018-07-19T18:49:15.549Z,101488.08
2018-07-19T18:51:44.194Z,101493.73
2018-07-19T18:54:12.860Z,101490.23
2018-07-19T18:56:41.501Z,101493.48
2018-07-19T18:59:10.176Z,101492.78
2018-07-19T19:01:38.816Z,101497.03
2018-07-19T19:04:07.520Z,101498.94
2018-07-19T19:06:36.208Z,101497.47
2018-07-19T19:09:06.437Z,101497.49
2018-07-19T19:11:35.098Z,101498.08
2018-07-19T19:14:03.867Z,101501.55
2018-07-19T19:16:32.496Z,101498.60
2018-07-19T19:19:01.161Z,101508.14
2018-07-19T19:21:29.858Z,101506.28
2018-07-19T19:23:58.507Z,101506.99
2018-07-19T19:26:27.137Z,101510.75
2018-07-19T19:28:55.794Z,101509.30
2018-07-19T19:31:24.451Z,101505.88
2018-07-19T19:33:53.120Z,101509.73
2018-07-19T19:36:21.769Z,101511.47
2018-07-19T19:38:50.451Z,101519.06
2018-07-19T19:41:19.112Z,101518.31
2018-07-19T19:43:47.797Z,101519.27
2018-07-19T19:46:16.439Z,101518.89
2018-07-19T19:48:45.131Z,101525.24
2018-07-19T19:51:13.792Z,101527.69
2018-07-19T19:53:42.464Z,101526.77
2018-07-19T19:56:11.116Z,101523.11
2018-07-19T19:58:39.804Z,101525.81
2018-07-19T20:01:08.468Z,101522.72
2018-07-19T20:03:37.155Z,101528.24
2018-07-19T20:06:06.013Z,101524.55
2018-07-19T20:08:34.643Z,101527.30
2018-07-19T20:11:03.308Z,101525.14
2018-07-19T20:13:31.964Z,101521.39
2018-07-19T20:16:00.643Z,101521.44
2018-07-19T20:18:29.294Z,101526.13
2018-07-19T20:20:57.959Z,101519.56
2018-07-19T20:23:26.592Z,101520.27
2018-07-19T20:25:55.259Z,101520.06
2018-07-19T20:28:23.923Z,101517.14
2018-07-19T20:30:52.584Z,101518.52
2018-07-19T20:33:21.237Z,101521.45
2018-07-19T20:35:49.920Z,101523.75
2018-07-19T20:38:18.583Z,101512.27
2018-07-19T20:40:47.281Z,101514.11
2018-07-19T20:43:15.945Z,101508.50
2018-07-19T20:45:44.599Z,101513.34
2018-07-19T20:48:13.236Z,101518.94
2018-07-19T20:50:41.927Z,101510.52
2018-07-19T20:53:10.597Z,101515.58
2018-07-19T20:55:39.280Z,101515.48
2018-07-19T20:58:07.953Z,101514.31
2018-07-19T21:00:36.617Z,101518.83
2018-07-19T21:03:05.326Z,101521.27
2018-07-19T21:05:33.984Z,101515.73
2018-07-19T21:08:02.639Z,101519.52
2018-07-19T21:10:31.304Z,101517.01
2018-07-19T21:12:59.975Z,101519.20
2018-07-19T21:15:28.629Z,101509.81
2018-07-19T21:17:57.276Z,101520.03
2018-07-19T21:20:25.940Z,101517.63
2018-07-19T21:22:54.603Z,101507.48
2018-07-19T21:25:23.273Z,101513.87
2018-07-19T21:27:51.900Z,101507.48
2018-07-19T21:30:20.581Z,101513.56
2018-07-19T21:32:49.223Z,101515.70
2018-07-19T21:35:17.904Z,101511.84
2018-07-19T21:37:46.544Z,101512.10
2018-07-19T21:40:15.212Z,101514.47
2018-07-19T21:42:43.851Z,101517.37
2018-07-19T21:45:12.544Z,101516.47
2018-07-19T21:47:41.171Z,101517.14
2018-07-19T21:50:09.832Z,101510.70
2018-07-19T21:52:38.481Z,101511.75
2018-07-19T21:55:07.144Z,101515.47
2018-07-19T21:57:35.783Z,101515.70
2018-07-19T22:00:04.585Z,101519.94
2018-07-19T22:02:33.283Z,101522.68
2018-07-19T22:05:01.933Z,101519.51
2018-07-19T22:07:30.586Z,101524.70
2018-07-19T22:09:59.254Z,101523.86
2018-07-19T22:12:27.905Z,101525.11
2018-07-19T22:14:56.548Z,101527.86
2018-07-19T22:17:25.211Z,101527.67
2018-07-19T22:19:53.857Z,101525.66
2018-07-19T22:22:22.528Z,101529.36
2018-07-19T22:24:51.157Z,101523.52
2018-07-19T22:27:19.833Z,101530.72
2018-07-19T22:29:48.485Z,101525.86
2018-07-19T22:32:17.142Z,101524.47
2018-07-19T22:34:45.794Z,101530.47
2018-07-19T22:37:14.446Z,101528.33
2018-07-19T22:39:43.177Z,101526.75
2018-07-19T22:42:11.827Z,101529.25
2018-07-19T22:44:40.444Z,101521.23
2018-07-19T22:47:09.104Z,101521.56
2018-07-19T22:49:37.738Z,101525.55
2018-07-19T22:52:06.436Z,101527.45
2018-07-19T22:54:35.119Z,101525.75
2018-07-19T22:57:03.789Z,101520.20
2018-07-19T22:59:32.539Z,101525.63
2018-07-19T23:02:01.226Z,101524.66
2018-07-19T23:04:29.892Z,101521.39
2018-07-19T23:06:58.555Z,101529.70
2018-07-19T23:09:27.179Z,101527.81
2018-07-19T23:11:55.839Z,101529.18
2018-07-19T23:14:24.473Z,101528.52
2018-07-19T23:16:53.131Z,101525.86
2018-07-19T23:19:21.770Z,101521.53
2018-07-19T23:21:50.439Z,101512.78
2018-07-19T23:24:19.089Z,101523.52
2018-07-19T23:26:47.806Z,101523.83
2018-07-19T23:29:16.537Z,101518.66
2018-07-19T23:31:45.255Z,101525.81
2018-07-19T23:34:13.947Z,101522.72
2018-07-19T23:36:49.051Z,101518.08
2018-07-19T23:39:21.296Z,101520.52
2018-07-19T23:42:00.612Z,101515.70
2018-07-19T23:44:37.629Z,101512.42
2018-07-19T23:47:10.217Z,101513.35
2018-07-19T23:49:38.862Z,101517.65
2018-07-19T23:52:07.572Z,101511.01
2018-07-19T23:54:36.200Z,101513.12
2018-07-19T23:57:04.963Z,101513.84
2018-07-19T23:59:33.604Z,101515.60
